sensor_id;sensor_type;location;lat;lon;timestamp;pressure;altitude;pressure_sealevel;temperature;humidity
62634;BME280;48704;50.534;6.442;2023-02-02T00:01:30;96000.31;;;3.01;100.00
62634;BME280;48704;50.534;6.442;2023-02-02T00:03:56;96000.81;;;2.96;100.00
62634;BME280;48704;50.534;6.442;2023-02-02T00:06:23;95990.91;;;2.98;100.00
62634;BME280;48704;50.534;6.442;2023-02-02T00:08:49;96010.97;;;2.99;100.00
62634;BME280;48704;50.534;6.442;2023-02-02T00:11:15;96009.41;;;2.98;100.00
62634;BME280;48704;50.534;6.442;2023-02-02T00:13:41;95996.88;;;2.97;100.00
62634;BME280;48704;50.534;6.442;2023-02-02T00:18:52;95999.25;;;2.95;100.00
62634;BME280;48704;50.534;6.442;2023-02-02T00:21:17;96003.91;;;2.98;100.00
62634;BME280;48704;50.534;6.442;2023-02-02T00:23:42;96003.22;;;2.94;100.00
62634;BME280;48704;50.534;6.442;2023-02-02T00:26:08;96028.69;;;2.98;100.00
62634;BME280;48704;50.534;6.442;2023-02-02T00:28:34;96014.13;;;2.97;100.00
62634;BME280;48704;50.534;6.442;2023-02-02T00:30:59;96006.31;;;2.96;100.00
62634;BME280;48704;50.534;6.442;2023-02-02T00:33:25;96029.03;;;3.00;100.00
62634;BME280;48704;50.534;6.442;2023-02-02T00:35:53;96018.91;;;2.97;100.00
62634;BME280;48704;50.534;6.442;2023-02-02T00:38:19;96017.34;;;2.96;100.00
62634;BME280;48704;50.534;6.442;2023-02-02T00:40:44;96015.78;;;2.95;100.00
62634;BME280;48704;50.534;6.442;2023-02-02T00:43:09;95999.97;;;2.99;100.00
62634;BME280;48704;50.534;6.442;2023-02-02T00:45:36;95998.41;;;2.98;100.00
62634;BME280;48704;50.534;6.442;2023-02-02T00:48:01;95996.88;;;2.97;100.00
62634;BME280;48704;50.534;6.442;2023-02-02T00:50:26;95989.38;;;2.97;100.00
62634;BME280;48704;50.534;6.442;2023-02-02T00:52:52;96000.72;;;2.99;100.00
62634;BME280;48704;50.534;6.442;2023-02-02T00:55:18;95997.72;;;2.94;100.00
62634;BME280;48704;50.534;6.442;2023-02-02T00:57:43;95999.63;;;2.97;100.00
62634;BME280;48704;50.534;6.442;2023-02-02T01:00:16;96005.59;;;2.92;100.00
62634;BME280;48704;50.534;6.442;2023-02-02T01:02:42;95995.38;;;2.92;100.00
62634;BME280;48704;50.534;6.442;2023-02-02T01:05:09;95999.25;;;2.95;100.00
62634;BME280;48704;50.534;6.442;2023-02-02T01:07:35;95990.13;;;2.98;100.00
62634;BME280;48704;50.534;6.442;2023-02-02T01:10:00;95993.75;;;2.95;100.00
62634;BME280;48704;50.534;6.442;2023-02-02T01:12:25;95992.19;;;2.94;100.00
62634;BME280;48704;50.534;6.442;2023-02-02T01:14:50;95994.34;;;2.83;100.00
62634;BME280;48704;50.534;6.442;2023-02-02T01:17:16;95995.84;;;2.87;100.00
62634;BME280;48704;50.534;6.442;2023-02-02T01:19:41;96008.09;;;2.83;100.00
62634;BME280;48704;50.534;6.442;2023-02-02T01:22:07;96014.31;;;2.87;100.00
62634;BME280;48704;50.534;6.442;2023-02-02T01:24:33;96008.00;;;2.90;100.00
62634;BME280;48704;50.534;6.442;2023-02-02T01:26:58;96016.47;;;2.99;100.00
62634;BME280;48704;50.534;6.442;2023-02-02T01:29:23;96001.59;;;2.96;100.00
62634;BME280;48704;50.534;6.442;2023-02-02T01:31:49;96010.63;;;2.97;100.00
62634;BME280;48704;50.534;6.442;2023-02-02T01:34:14;96006.66;;;2.98;100.00
62634;BME280;48704;50.534;6.442;2023-02-02T01:36:39;96005.47;;;2.99;100.00
62634;BME280;48704;50.534;6.442;2023-02-02T01:39:05;96010.28;;;2.95;100.00
62634;BME280;48704;50.534;6.442;2023-02-02T01:41:30;96007.88;;;2.97;100.00
62634;BME280;48704;50.534;6.442;2023-02-02T01:44:00;96014.91;;;2.98;100.00
62634;BME280;48704;50.534;6.442;2023-02-02T01:46:31;96014.22;;;2.94;100.00
62634;BME280;48704;50.534;6.442;2023-02-02T01:49:01;96015.78;;;2.95;100.00
62634;BME280;48704;50.534;6.442;2023-02-02T01:51:33;96015.38;;;2.96;100.00
62634;BME280;48704;50.534;6.442;2023-02-02T01:54:00;96018.91;;;2.97;100.00
62634;BME280;48704;50.534;6.442;2023-02-02T01:56:44;96015.28;;;3.00;100.00
62634;BME280;48704;50.534;6.442;2023-02-02T01:59:12;96022.41;;;2.97;100.00
62634;BME280;48704;50.534;6.442;2023-02-02T02:01:39;96008.22;;;2.99;100.00
62634;BME280;48704;50.534;6.442;2023-02-02T02:04:04;96014.09;;;3.01;100.00
62634;BME280;48704;50.534;6.442;2023-02-02T02:06:30;96006.31;;;2.96;100.00
62634;BME280;48704;50.534;6.442;2023-02-02T02:08:58;96003.06;;;3.01;100.00
62634;BME280;48704;50.534;6.442;2023-02-02T02:11:24;96017.63;;;3.01;100.00
62634;BME280;48704;50.534;6.442;2023-02-02T02:13:52;96021.94;;;3.02;100.00
62634;BME280;48704;50.534;6.442;2023-02-02T02:22:04;96020.50;;;2.94;100.00
62634;BME280;48704;50.534;6.442;2023-02-02T02:33:46;96015.78;;;2.95;100.00
62634;BME280;48704;50.534;6.442;2023-02-02T02:42:21;96010.28;;;2.95;100.00
62634;BME280;48704;50.534;6.442;2023-02-02T02:44:48;96013.44;;;2.93;100.00
62634;BME280;48704;50.534;6.442;2023-02-02T02:47:14;96021.28;;;2.95;100.00
62634;BME280;48704;50.534;6.442;2023-02-02T02:49:44;96014.22;;;2.94;100.00
62634;BME280;48704;50.534;6.442;2023-02-02T02:52:10;96018.16;;;2.93;100.00
62634;BME280;48704;50.534;6.442;2023-02-02T02:54:51;96027.16;;;2.97;100.00
62634;BME280;48704;50.534;6.442;2023-02-02T03:02:31;96031.31;;;3.05;100.00
62634;BME280;48704;50.534;6.442;2023-02-02T03:05:10;96023.06;;;3.05;100.00
62634;BME280;48704;50.534;6.442;2023-02-02T03:07:43;96024.25;;;3.04;100.00
62634;BME280;48704;50.534;6.442;2023-02-02T03:10:12;96010.13;;;3.02;100.00
62634;BME280;48704;50.534;6.442;2023-02-02T03:12:47;96014.91;;;2.98;100.00
62634;BME280;48704;50.534;6.442;2023-02-02T03:15:13;96015.28;;;3.00;100.00
62634;BME280;48704;50.534;6.442;2023-02-02T03:17:40;96021.88;;;3.06;100.00
62634;BME280;48704;50.534;6.442;2023-02-02T03:20:06;95999.78;;;3.10;100.00
62634;BME280;48704;50.534;6.442;2023-02-02T03:22:32;96008.47;;;3.08;100.00
62634;BME280;48704;50.534;6.442;2023-02-02T03:24:57;96015.16;;;3.07;100.00
62634;BME280;48704;50.534;6.442;2023-02-02T03:27:24;96019.13;;;3.06;100.00
62634;BME280;48704;50.534;6.442;2023-02-02T03:29:50;96012.06;;;3.05;100.00
62634;BME280;48704;50.534;6.442;2023-02-02T03:32:15;96010.84;;;3.06;100.00
62634;BME280;48704;50.534;6.442;2023-02-02T03:34:41;96021.16;;;3.02;100.00
62634;BME280;48704;50.534;6.442;2023-02-02T03:37:06;96014.81;;;3.05;100.00
62634;BME280;48704;50.534;6.442;2023-02-02T03:39:31;96027.84;;;3.01;100.00
62634;BME280;48704;50.534;6.442;2023-02-02T03:41:56;96036.84;;;3.05;100.00
62634;BME280;48704;50.534;6.442;2023-02-02T03:44:22;96042.28;;;3.09;100.00
62634;BME280;48704;50.534;6.442;2023-02-02T03:46:47;96039.94;;;3.07;100.00
62634;BME280;48704;50.534;6.442;2023-02-02T03:49:12;96032.88;;;3.06;100.00
62634;BME280;48704;50.534;6.442;2023-02-02T03:51:37;96036.06;;;3.05;100.00
62634;BME280;48704;50.534;6.442;2023-02-02T03:54:03;96036.00;;;3.08;100.00
62634;BME280;48704;50.534;6.442;2023-02-02T03:56:29;96033.66;;;3.07;100.00
62634;BME280;48704;50.534;6.442;2023-02-02T03:58:54;96030.53;;;3.05;100.00
62634;BME280;48704;50.534;6.442;2023-02-02T04:01:25;96039.16;;;3.07;100.00
62634;BME280;48704;50.534;6.442;2023-02-02T04:03:51;96047.44;;;3.07;100.00
62634;BME280;48704;50.534;6.442;2023-02-02T04:06:17;96037.59;;;3.06;100.00
62634;BME280;48704;50.534;6.442;2023-02-02T04:08:44;96049.75;;;3.08;100.00
62634;BME280;48704;50.534;6.442;2023-02-02T04:11:09;96051.78;;;3.04;100.00
62634;BME280;48704;50.534;6.442;2023-02-02T04:13:35;96058.84;;;3.05;100.00
62634;BME280;48704;50.534;6.442;2023-02-02T04:16:00;96058.44;;;3.07;100.00
62634;BME280;48704;50.534;6.442;2023-02-02T04:18:26;96058.03;;;3.08;100.00
62634;BME280;48704;50.534;6.442;2023-02-02T04:20:59;96055.38;;;3.01;100.00
62634;BME280;48704;50.534;6.442;2023-02-02T04:23:26;96059.69;;;3.02;100.00
62634;BME280;48704;50.534;6.442;2023-02-02T04:25:51;96054.91;;;3.06;100.00
62634;BME280;48704;50.534;6.442;2023-02-02T04:28:17;96054.13;;;3.06;100.00
62634;BME280;48704;50.534;6.442;2023-02-02T04:30:42;96065.91;;;3.06;100.00
62634;BME280;48704;50.534;6.442;2023-02-02T04:33:07;96068.69;;;3.06;100.00
62634;BME280;48704;50.534;6.442;2023-02-02T04:35:33;96071.63;;;2.95;100.00
62634;BME280;48704;50.534;6.442;2023-02-02T04:37:58;96075.00;;;3.03;100.00
62634;BME280;48704;50.534;6.442;2023-02-02T04:40:23;96077.72;;;3.07;100.00
62634;BME280;48704;50.534;6.442;2023-02-02T04:42:48;96083.16;;;3.10;100.00
62634;BME280;48704;50.534;6.442;2023-02-02T04:45:14;96084.81;;;3.04;100.00
62634;BME280;48704;50.534;6.442;2023-02-02T04:47:39;96075.38;;;3.05;100.00
62634;BME280;48704;50.534;6.442;2023-02-02T04:50:05;96067.47;;;3.07;100.00
62634;BME280;48704;50.534;6.442;2023-02-02T04:52:31;96069.88;;;3.05;100.00
62634;BME280;48704;50.534;6.442;2023-02-02T04:54:56;96072.66;;;3.01;100.00
62634;BME280;48704;50.534;6.442;2023-02-02T04:57:21;96084.09;;;3.00;100.00
62634;BME280;48704;50.534;6.442;2023-02-02T04:59:46;96076.22;;;3.02;100.00
62634;BME280;48704;50.534;6.442;2023-02-02T05:02:12;96075.47;;;2.98;100.00
62634;BME280;48704;50.534;6.442;2023-02-02T05:04:37;96076.22;;;3.02;100.00
62634;BME280;48704;50.534;6.442;2023-02-02T05:07:02;96094.28;;;3.03;100.00
62634;BME280;48704;50.534;6.442;2023-02-02T05:09:28;96084.09;;;3.00;100.00
62634;BME280;48704;50.534;6.442;2023-02-02T05:11:53;96077.81;;;2.99;100.00
62634;BME280;48704;50.534;6.442;2023-02-02T05:14:18;96073.09;;;3.00;100.00
62634;BME280;48704;50.534;6.442;2023-02-02T05:16:44;96092.34;;;3.00;100.00
62634;BME280;48704;50.534;6.442;2023-02-02T05:19:10;96086.50;;;2.98;100.00
62634;BME280;48704;50.534;6.442;2023-02-02T05:21:36;96095.97;;;2.97;100.00
62634;BME280;48704;50.534;6.442;2023-02-02T05:24:01;96098.59;;;3.04;100.00
62634;BME280;48704;50.534;6.442;2023-02-02T05:26:28;96086.81;;;3.03;100.00
62634;BME280;48704;50.534;6.442;2023-02-02T05:28:55;96082.50;;;3.02;100.00
62634;BME280;48704;50.534;6.442;2023-02-02T05:31:20;96084.47;;;3.02;100.00
62634;BME280;48704;50.534;6.442;2023-02-02T05:33:46;96099.06;;;2.99;100.00
62634;BME280;48704;50.534;6.442;2023-02-02T05:36:11;96091.28;;;2.94;100.00
62634;BME280;48704;50.534;6.442;2023-02-02T05:38:37;96100.69;;;2.96;100.00
62634;BME280;48704;50.534;6.442;2023-02-02T05:41:02;96086.16;;;2.96;100.00
62634;BME280;48704;50.534;6.442;2023-02-02T05:43:29;96085.06;;;2.90;100.00
62634;BME280;48704;50.534;6.442;2023-02-02T05:45:55;96077.16;;;2.92;100.00
62634;BME280;48704;50.534;6.442;2023-02-02T05:48:20;96075.97;;;2.93;100.00
62634;BME280;48704;50.534;6.442;2023-02-02T05:50:55;96069.28;;;2.94;100.00
62634;BME280;48704;50.534;6.442;2023-02-02T05:53:21;96079.50;;;2.93;100.00
62634;BME280;48704;50.534;6.442;2023-02-02T05:55:47;96074.78;;;2.94;100.00
62634;BME280;48704;50.534;6.442;2023-02-02T05:58:12;96076.75;;;2.93;100.00
62634;BME280;48704;50.534;6.442;2023-02-02T06:00:38;96081.13;;;2.91;100.00
62634;BME280;48704;50.534;6.442;2023-02-02T06:03:03;96082.66;;;2.92;100.00
62634;BME280;48704;50.534;6.442;2023-02-02T06:05:28;96068.50;;;2.93;100.00
62634;BME280;48704;50.534;6.442;2023-02-02T06:07:53;96067.66;;;2.96;100.00
62634;BME280;48704;50.534;6.442;2023-02-02T06:10:19;96077.53;;;2.94;100.00
62634;BME280;48704;50.534;6.442;2023-02-02T06:12:44;96070.09;;;2.91;100.00
62634;BME280;48704;50.534;6.442;2023-02-02T06:15:09;96080.69;;;2.92;100.00
62634;BME280;48704;50.534;6.442;2023-02-02T06:17:35;96078.31;;;2.94;100.00
62634;BME280;48704;50.534;6.442;2023-02-02T06:20:01;96074.78;;;2.94;100.00
62634;BME280;48704;50.534;6.442;2023-02-02T06:22:26;96092.94;;;2.88;100.00
62634;BME280;48704;50.534;6.442;2023-02-02T06:24:51;96095.25;;;2.93;100.00
62634;BME280;48704;50.534;6.442;2023-02-02T06:27:19;96095.25;;;2.93;100.00
62634;BME280;48704;50.534;6.442;2023-02-02T06:29:44;96088.53;;;2.94;100.00
62634;BME280;48704;50.534;6.442;2023-02-02T06:32:09;96087.41;;;2.91;100.00
62634;BME280;48704;50.534;6.442;2023-02-02T06:34:35;96085.78;;;2.94;100.00
62634;BME280;48704;50.534;6.442;2023-02-02T06:37:00;96088.53;;;2.94;100.00
62634;BME280;48704;50.534;6.442;2023-02-02T06:39:25;96099.19;;;2.92;100.00
62634;BME280;48704;50.534;6.442;2023-02-02T06:41:50;96103.19;;;2.87;100.00
62634;BME280;48704;50.534;6.442;2023-02-02T06:44:16;96108.63;;;2.91;100.00
62634;BME280;48704;50.534;6.442;2023-02-02T06:46:43;96116.53;;;2.89;100.00
62634;BME280;48704;50.534;6.442;2023-02-02T06:49:08;96115.81;;;2.85;100.00
62634;BME280;48704;50.534;6.442;2023-02-02T06:51:34;96125.97;;;2.88;100.00
62634;BME280;48704;50.534;6.442;2023-02-02T06:53:59;96120.47;;;2.88;100.00
62634;BME280;48704;50.534;6.442;2023-02-02T06:56:24;96139.38;;;2.86;100.00
62634;BME280;48704;50.534;6.442;2023-02-02T06:58:49;96129.09;;;2.90;100.00
62634;BME280;48704;50.534;6.442;2023-02-02T07:01:15;96135.06;;;2.85;100.00
62634;BME280;48704;50.534;6.442;2023-02-02T07:03:40;96147.28;;;2.84;100.00
62634;BME280;48704;50.534;6.442;2023-02-02T07:08:37;96122.88;;;2.86;100.00
62634;BME280;48704;50.534;6.442;2023-02-02T07:11:02;96122.88;;;2.86;100.00
62634;BME280;48704;50.534;6.442;2023-02-02T07:13:27;96126.81;;;2.85;100.00
62634;BME280;48704;50.534;6.442;2023-02-02T07:15:53;96130.75;;;2.84;100.00
62634;BME280;48704;50.534;6.442;2023-02-02T07:18:18;96116.16;;;2.87;100.00
62634;BME280;48704;50.534;6.442;2023-02-02T07:20:44;96109.50;;;2.84;100.00
62634;BME280;48704;50.534;6.442;2023-02-02T07:23:09;96116.22;;;2.83;100.00
62634;BME280;48704;50.534;6.442;2023-02-02T07:25:34;96108.00;;;2.80;100.00
62634;BME280;48704;50.534;6.442;2023-02-02T07:27:59;96117.41;;;2.82;100.00
62634;BME280;48704;50.534;6.442;2023-02-02T07:30:25;96145.72;;;2.83;100.00
62634;BME280;48704;50.534;6.442;2023-02-02T07:32:53;96128.38;;;2.86;100.00
62634;BME280;48704;50.534;6.442;2023-02-02T07:35:18;96141.81;;;2.80;100.00
62634;BME280;48704;50.534;6.442;2023-02-02T07:37:50;96142.13;;;2.86;100.00
62634;BME280;48704;50.534;6.442;2023-02-02T07:40:15;96141.41;;;2.82;100.00
62634;BME280;48704;50.534;6.442;2023-02-02T07:42:40;96159.41;;;2.86;100.00
62634;BME280;48704;50.534;6.442;2023-02-02T07:45:06;96153.50;;;2.88;100.00
62634;BME280;48704;50.534;6.442;2023-02-02T07:47:32;96160.56;;;2.89;100.00
62634;BME280;48704;50.534;6.442;2023-02-02T07:49:57;96171.59;;;2.89;100.00
62634;BME280;48704;50.534;6.442;2023-02-02T07:52:22;96166.06;;;2.89;100.00
62634;BME280;48704;50.534;6.442;2023-02-02T07:54:48;96167.69;;;2.86;100.00
62634;BME280;48704;50.534;6.442;2023-02-02T07:57:15;96149.19;;;2.87;100.00
62634;BME280;48704;50.534;6.442;2023-02-02T07:59:41;96163.69;;;2.91;100.00
62634;BME280;48704;50.534;6.442;2023-02-02T08:02:08;96161.75;;;2.88;100.00
62634;BME280;48704;50.534;6.442;2023-02-02T08:04:33;96151.50;;;2.92;100.00
62634;BME280;48704;50.534;6.442;2023-02-02T08:06:59;96153.47;;;2.91;100.00
62634;BME280;48704;50.534;6.442;2023-02-02T08:09:24;96166.03;;;2.92;100.00
62634;BME280;48704;50.534;6.442;2023-02-02T08:11:49;96152.72;;;2.87;100.00
62634;BME280;48704;50.534;6.442;2023-02-02T08:14:15;96154.59;;;2.94;100.00
62634;BME280;48704;50.534;6.442;2023-02-02T08:16:40;96149.88;;;2.94;100.00
62634;BME280;48704;50.534;6.442;2023-02-02T08:19:05;96151.84;;;2.94;100.00
62634;BME280;48704;50.534;6.442;2023-02-02T08:21:34;96151.06;;;2.93;100.00
62634;BME280;48704;50.534;6.442;2023-02-02T08:23:59;96150.28;;;2.93;100.00
62634;BME280;48704;50.534;6.442;2023-02-02T08:26:28;96150.59;;;2.98;100.00
62634;BME280;48704;50.534;6.442;2023-02-02T08:28:59;96162.03;;;2.97;100.00
62634;BME280;48704;50.534;6.442;2023-02-02T08:31:27;96167.88;;;2.99;100.00
62634;BME280;48704;50.534;6.442;2023-02-02T08:33:53;96165.13;;;2.99;100.00
62634;BME280;48704;50.534;6.442;2023-02-02T08:36:21;96179.25;;;3.01;100.00
62634;BME280;48704;50.534;6.442;2023-02-02T08:38:47;96171.00;;;3.01;100.00
62634;BME280;48704;50.534;6.442;2023-02-02T08:41:14;96173.75;;;3.01;100.00
62634;BME280;48704;50.534;6.442;2023-02-02T08:43:41;96180.03;;;3.01;100.00
62634;BME280;48704;50.534;6.442;2023-02-02T08:46:08;96196.28;;;2.96;100.00
62634;BME280;48704;50.534;6.442;2023-02-02T08:48:34;96199.72;;;3.00;100.00
62634;BME280;48704;50.534;6.442;2023-02-02T08:51:01;96211.88;;;3.02;100.00
62634;BME280;48704;50.534;6.442;2023-02-02T08:53:27;96204.78;;;3.05;100.00
62634;BME280;48704;50.534;6.442;2023-02-02T08:56:12;96203.22;;;3.04;100.00
62634;BME280;48704;50.534;6.442;2023-02-02T08:58:38;96195.69;;;3.08;100.00
62634;BME280;48704;50.534;6.442;2023-02-02T09:03:35;96206.72;;;3.08;100.00
62634;BME280;48704;50.534;6.442;2023-02-02T09:06:15;96207.34;;;3.19;100.00
62634;BME280;48704;50.534;6.442;2023-02-02T09:08:41;96195.13;;;3.20;100.00
62634;BME280;48704;50.534;6.442;2023-02-02T09:11:12;96200.19;;;3.25;100.00
62634;BME280;48704;50.534;6.442;2023-02-02T09:13:38;96206.44;;;3.29;100.00
62634;BME280;48704;50.534;6.442;2023-02-02T09:16:06;96211.94;;;3.29;100.00
62634;BME280;48704;50.534;6.442;2023-02-02T09:18:32;96215.06;;;3.31;100.00
62634;BME280;48704;50.534;6.442;2023-02-02T09:21:03;96218.19;;;3.33;100.00
62634;BME280;48704;50.534;6.442;2023-02-02T09:23:29;96219.00;;;3.30;100.00
62634;BME280;48704;50.534;6.442;2023-02-02T09:25:55;96219.09;;;3.23;100.00
62634;BME280;48704;50.534;6.442;2023-02-02T09:28:20;96210.44;;;3.25;100.00
62634;BME280;48704;50.534;6.442;2023-02-02T09:30:46;96222.94;;;3.29;100.00
62634;BME280;48704;50.534;6.442;2023-02-02T09:33:11;96235.53;;;3.30;100.00
62634;BME280;48704;50.534;6.442;2023-02-02T09:35:36;96242.59;;;3.31;100.00
62634;BME280;48704;50.534;6.442;2023-02-02T09:38:01;96229.66;;;3.28;100.00
62634;BME280;48704;50.534;6.442;2023-02-02T09:40:30;96257.56;;;3.30;100.00
62634;BME280;48704;50.534;6.442;2023-02-02T09:43:01;96233.47;;;3.34;100.00
62634;BME280;48704;50.534;6.442;2023-02-02T09:48:49;96259.84;;;3.35;100.00
62634;BME280;48704;50.534;6.442;2023-02-02T09:51:20;96262.13;;;3.41;100.00
62634;BME280;48704;50.534;6.442;2023-02-02T09:53:53;96243.16;;;3.46;100.00
62634;BME280;48704;50.534;6.442;2023-02-02T09:56:30;96272.31;;;3.44;100.00
62634;BME280;48704;50.534;6.442;2023-02-02T09:58:59;96269.88;;;3.49;100.00
62634;BME280;48704;50.534;6.442;2023-02-02T10:01:30;96286.47;;;3.46;100.00
62634;BME280;48704;50.534;6.442;2023-02-02T10:06:55;96308.13;;;3.44;100.00
62634;BME280;48704;50.534;6.442;2023-02-02T10:09:40;96295.56;;;3.43;100.00
62634;BME280;48704;50.534;6.442;2023-02-02T10:12:27;96301.88;;;3.40;100.00
62634;BME280;48704;50.534;6.442;2023-02-02T10:18:02;96309.88;;;3.61;100.00
62634;BME280;48704;50.534;6.442;2023-02-02T10:23:33;96327.13;;;3.68;100.00
62634;BME280;48704;50.534;6.442;2023-02-02T10:26:07;96322.25;;;3.76;100.00
62634;BME280;48704;50.534;6.442;2023-02-02T10:28:43;96324.59;;;3.78;100.00
62634;BME280;48704;50.534;6.442;2023-02-02T10:34:34;96331.88;;;3.64;100.00
62634;BME280;48704;50.534;6.442;2023-02-02T10:37:59;96336.63;;;3.64;100.00
62634;BME280;48704;50.534;6.442;2023-02-02T10:45:47;96332.31;;;3.63;100.00
62634;BME280;48704;50.534;6.442;2023-02-02T10:48:17;96325.28;;;3.58;100.00
62634;BME280;48704;50.534;6.442;2023-02-02T10:50:50;96321.03;;;3.50;100.00
62634;BME280;48704;50.534;6.442;2023-02-02T10:53:17;96342.59;;;3.59;100.00
62634;BME280;48704;50.534;6.442;2023-02-02T10:58:59;96347.81;;;3.50;100.00
62634;BME280;48704;50.534;6.442;2023-02-02T11:01:28;96350.16;;;3.51;100.00
62634;BME280;48704;50.534;6.442;2023-02-02T11:03:53;96344.31;;;3.46;100.00
62634;BME280;48704;50.534;6.442;2023-02-02T11:06:37;96341.53;;;3.49;100.00
62634;BME280;48704;50.534;6.442;2023-02-02T11:09:24;96343.03;;;3.54;100.00
62634;BME280;48704;50.534;6.442;2023-02-02T11:11:58;96362.69;;;3.56;100.00
62634;BME280;48704;50.534;6.442;2023-02-02T11:14:45;96351.69;;;3.56;100.00
62634;BME280;48704;50.534;6.442;2023-02-02T11:17:24;96343.91;;;3.47;100.00
62634;BME280;48704;50.534;6.442;2023-02-02T11:19:50;96343.81;;;3.54;100.00
62634;BME280;48704;50.534;6.442;2023-02-02T11:22:43;96345.47;;;3.48;100.00
62634;BME280;48704;50.534;6.442;2023-02-02T11:25:26;96339.09;;;3.55;100.00
62634;BME280;48704;50.534;6.442;2023-02-02T11:27:56;96331.38;;;3.43;100.00
62634;BME280;48704;50.534;6.442;2023-02-02T11:30:37;96321.81;;;3.51;100.00
62634;BME280;48704;50.534;6.442;2023-02-02T11:36:16;96329.75;;;3.45;100.00
62634;BME280;48704;50.534;6.442;2023-02-02T11:38:42;96335.22;;;3.49;100.00
62634;BME280;48704;50.534;6.442;2023-02-02T11:41:08;96332.88;;;3.47;100.00
62634;BME280;48704;50.534;6.442;2023-02-02T11:46:17;96343.81;;;3.54;100.00
62634;BME280;48704;50.534;6.442;2023-02-02T11:48:58;96330.47;;;3.53;100.00
62634;BME280;48704;50.534;6.442;2023-02-02T11:51:26;96336.63;;;3.64;100.00
62634;BME280;48704;50.534;6.442;2023-02-02T11:56:36;96329.44;;;3.70;100.00
62634;BME280;48704;50.534;6.442;2023-02-02T11:59:02;96342.09;;;3.67;100.00
62634;BME280;48704;50.534;6.442;2023-02-02T12:01:35;96337.34;;;3.68;100.00
62634;BME280;48704;50.534;6.442;2023-02-02T12:04:23;96326.94;;;3.79;100.00
62634;BME280;48704;50.534;6.442;2023-02-02T12:06:50;96320.09;;;3.64;100.00
62634;BME280;48704;50.534;6.442;2023-02-02T12:09:24;96326.22;;;3.75;100.00
62634;BME280;48704;50.534;6.442;2023-02-02T12:14:33;96303.69;;;3.80;100.00
62634;BME280;48704;50.534;6.442;2023-02-02T12:22:40;96300.09;;;3.83;100.00
62634;BME280;48704;50.534;6.442;2023-02-02T12:31:04;96282.69;;;3.90;100.00
62634;BME280;48704;50.534;6.442;2023-02-02T12:39:32;96262.25;;;3.87;100.00
62634;BME280;48704;50.534;6.442;2023-02-02T12:42:43;96268.53;;;3.88;100.00
62634;BME280;48704;50.534;6.442;2023-02-02T12:45:34;96259.50;;;4.11;100.00
62634;BME280;48704;50.534;6.442;2023-02-02T12:54:12;96254.59;;;4.22;100.00
62634;BME280;48704;50.534;6.442;2023-02-02T13:07:34;96255.97;;;4.33;100.00
62634;BME280;48704;50.534;6.442;2023-02-02T13:10:11;96256.38;;;4.32;100.00
62634;BME280;48704;50.534;6.442;2023-02-02T13:12:44;96262.03;;;4.25;100.00
62634;BME280;48704;50.534;6.442;2023-02-02T13:15:21;96263.63;;;4.22;100.00
62634;BME280;48704;50.534;6.442;2023-02-02T13:17:52;96264.41;;;4.23;100.00
62634;BME280;48704;50.534;6.442;2023-02-02T13:20:43;96270.66;;;4.27;100.00
62634;BME280;48704;50.534;6.442;2023-02-02T13:23:18;96265.25;;;4.20;100.00
62634;BME280;48704;50.534;6.442;2023-02-02T13:25:51;96262.38;;;4.27;100.00
62634;BME280;48704;50.534;6.442;2023-02-02T13:28:23;96268.63;;;4.31;100.00
62634;BME280;48704;50.534;6.442;2023-02-02T13:30:55;96266.81;;;4.21;100.00
62634;BME280;48704;50.534;6.442;2023-02-02T13:33:27;96266.16;;;4.13;100.00
62634;BME280;48704;50.534;6.442;2023-02-02T13:35:59;96271.50;;;4.24;100.00
62634;BME280;48704;50.534;6.442;2023-02-02T13:38:28;96280.25;;;4.19;100.00
62634;BME280;48704;50.534;6.442;2023-02-02T13:41:01;96272.22;;;4.28;100.00
62634;BME280;48704;50.534;6.442;2023-02-02T13:46:14;96264.53;;;4.39;100.00
62634;BME280;48704;50.534;6.442;2023-02-02T14:00:31;96293.31;;;4.61;100.00
62634;BME280;48704;50.534;6.442;2023-02-02T14:03:00;96281.50;;;4.61;100.00
62634;BME280;48704;50.534;6.442;2023-02-02T14:05:39;96279.75;;;4.70;100.00
62634;BME280;48704;50.534;6.442;2023-02-02T14:08:20;96309.75;;;4.68;100.00
62634;BME280;48704;50.534;6.442;2023-02-02T14:13:20;96276.91;;;4.94;100.00
62634;BME280;48704;50.534;6.442;2023-02-02T14:16:07;96292.22;;;4.79;100.00
62634;BME280;48704;50.534;6.442;2023-02-02T14:27:53;96306.44;;;4.77;100.00
62634;BME280;48704;50.534;6.442;2023-02-02T14:34:48;96307.06;;;4.85;100.00
62634;BME280;48704;50.534;6.442;2023-02-02T14:42:50;96324.16;;;4.56;100.00
62634;BME280;48704;50.534;6.442;2023-02-02T14:45:43;96310.59;;;4.65;100.00
62634;BME280;48704;50.534;6.442;2023-02-02T14:48:17;96311.97;;;4.77;100.00
62634;BME280;48704;50.534;6.442;2023-02-02T14:50:47;96308.56;;;4.69;100.00
62634;BME280;48704;50.534;6.442;2023-02-02T14:53:32;96296.44;;;4.63;100.00
62634;BME280;48704;50.534;6.442;2023-02-02T14:56:02;96303.69;;;4.54;100.00
62634;BME280;48704;50.534;6.442;2023-02-02T14:58:31;96302.19;;;4.49;100.00
62634;BME280;48704;50.534;6.442;2023-02-02T15:06:34;96304.41;;;4.58;100.00
62634;BME280;48704;50.534;6.442;2023-02-02T15:09:34;96306.88;;;4.52;100.00
62634;BME280;48704;50.534;6.442;2023-02-02T15:16:56;96312.28;;;4.36;100.00
62634;BME280;48704;50.534;6.442;2023-02-02T15:19:33;96324.56;;;4.31;100.00
62634;BME280;48704;50.534;6.442;2023-02-02T15:22:15;96334.94;;;4.24;100.00
62634;BME280;48704;50.534;6.442;2023-02-02T15:24:44;96330.25;;;4.21;100.00
62634;BME280;48704;50.534;6.442;2023-02-02T15:27:16;96343.69;;;4.19;100.00
62634;BME280;48704;50.534;6.442;2023-02-02T15:29:44;96350.28;;;4.25;100.00
62634;BME280;48704;50.534;6.442;2023-02-02T15:32:16;96342.03;;;4.25;100.00
62634;BME280;48704;50.534;6.442;2023-02-02T15:34:48;96341.25;;;4.24;100.00
62634;BME280;48704;50.534;6.442;2023-02-02T15:37:18;96357.00;;;4.24;100.00
62634;BME280;48704;50.534;6.442;2023-02-02T15:39:46;96358.56;;;4.25;100.00